My Meet Scores
Anna Lazovski, Naperville Gymnastics Club - MyMeetScores.com
Top100 | Top Teams | Upcoming Meets | Completed Meets | Latest | Add Scores | Help| Support | Bookmark and Share

Anna Lazovski, Naperville Gymnastics Club
Personal Bests
LevelVault BarsBeamFloorAA
39.5259.175 8.6009.12535.100
48.6009.050 8.8758.67534.675
68.9008.000 7.8508.82533.325
XG9.2009.525 9.6009.35037.500
XS9.3008.800 8.7758.15035.025
Meet Scores
Date Meet Team Session Level Division Vault Bars Beam Floor AA
2019-05-03 2019 Region 5 Xcel Championships Naperville Gymnastics Club 09O XG CH A 9.050 13 8.875 31 9.025 28T 9.300 21T 36.250 22
2019-04-05 2019 Illinois XG, XP, XD State Championships Naperville Gymnastics Club 7 XG Ch B 9.125 9T 9.425 8T 9.600 3 9.350 10T 37.500 4
2019-03-08 Lucky Invite Naperville Gymnastics Club B03 XG Jr A 8.700 14T 9.425 4 9.275 9T 8.925 18 36.325 9
2019-03-01 NGCD Academy's 2019 Flip'r Invitational Naperville Gymnastics Club 2 XG Child 9.200 4T 9.525 2T 9.250 7T 9.125 8T 37.100 6
2019-02-23 Kinetic Classic 2019 Naperville Gymnastics Club 1 XG Younger 9.200 5T 9.250 5T 8.200 25 9.100 11 35.750 14
2019-02-09 Ground Hog Day Classic Naperville Gymnastics Club 3 6 CH 10-11 8.900 6 7.900 8 7.850 8 8.675 8 33.325 8
2019-02-01 Wisconsin Dells Gymnastics Vacation Classic Naperville Gymnastics Club B1 6 Children 7.050 14T 8.000 10 7.825 15 8.825 13T 31.700 11
2019-02-01 Wisconsin Dells Gymnastics Vacation Classic Naperville Gymnastics Club B1 6 Children 8.825 7 8.825 9
2018-03-08 Level 4 & 5 State Naperville Gymnastics Club All 4 Ch C 8.600 14T 8.550 20 8.300 27 8.250 26 33.700 25
2018-03-02 2018 Flip'r Invitational Naperville Gymnastics Club 6 4 Child B Age 8 B 3/16/ 8.350 14 8.875 8 8.100 14 8.425 11 33.750 13
2018-02-16 Big Classic Naperville Gymnastics Club 5B 4 Child A 8.225 8 8.600 10T 8.350 15 8.675 12 33.850 11
2018-01-19 2018 Bravo Classic Naperville Gymnastics Club 12B 4 Child 8.100 16T 9.050 6T 8.875 14T 8.650 20T 34.675 13
2017-12-15 2017 Aspire Classic Naperville Gymnastics Club 6A 4 Younger 8.500 7T 8.775 7T 8.400 16 8.400 13 34.075 10
2017-11-17 SCGA Classic Naperville Gymnastics Club 4 XS JrA 9.300 1 8.800 14 8.775 11 8.150 15 35.025 12
2017-03-30 2017 Illinois Level 3 & 5 State Naperville Gymnastics Club All 3 Ch D 9.525 4T 8.100 30 8.550 26T 8.925 18T 35.100 27
2017-03-10 Lucky Invitational Naperville Gymnastics Club B03 3 Jr A 8.875 14 8.325 14 7.900 15 9.125 9 34.225 15
2017-02-24 Kinetic Classic Naperville Gymnastics Club 4,5,6,7 3 All Ages 8.650 106T 8.825 67T 7.850 108 8.675 86T 34.000 95
2017-02-17 Midwest Open Naperville Gymnastics Club 2A 3 JR A 8.850 11T 8.550 7 8.525 8 9.000 8T 34.925 8
2017-02-03 2017 Gateway Challenge Naperville Gymnastics Club 5B 3 7 8.875 15 9.175 7T 8.000 15 8.400 14 34.450 14
2017-01-20 2017 Bravo Classic Naperville Gymnastics Club 10B 3 6-7yrs 8.900 17 8.700 20T 8.600 16T 7.800 25 34.000 20
2016-12-09 St. Nick Invite Naperville Gymnastics Club 5 3 All 8.775 72T 7.750 79T 8.400 72T 8.225 82 33.150 77
Get your scores on
a t-shirt, pin, or hoodie

Order by December 13

www.lazysuits.com